createdAt,value
2018-01-05T00:00:17.108Z,0.00
2018-01-05T00:02:10.006Z,0.00
2018-01-05T00:03:09.995Z,0.00
2018-01-05T00:05:02.903Z,0.00
2018-01-05T00:06:02.922Z,0.00
2018-01-05T00:07:56.222Z,0.00
2018-01-05T00:08:56.206Z,0.00
2018-01-05T00:10:49.114Z,0.00
2018-01-05T00:11:49.122Z,0.00
2018-01-05T00:13:42.052Z,0.00
2018-01-05T00:14:42.040Z,0.00
2018-01-05T00:16:34.951Z,0.00
2018-01-05T00:17:34.965Z,0.00
2018-01-05T00:19:27.981Z,0.00
2018-01-05T00:20:27.938Z,0.00
2018-01-05T00:22:21.155Z,0.00
2018-01-05T00:23:21.156Z,0.00
2018-01-05T00:25:14.084Z,0.00
2018-01-05T00:26:14.091Z,0.00
2018-01-05T00:28:07.014Z,0.00
2018-01-05T00:29:07.013Z,0.00
2018-01-05T00:30:59.923Z,0.00
2018-01-05T00:31:59.936Z,0.00
2018-01-05T00:33:56.817Z,0.00
2018-01-05T00:34:56.824Z,0.00
2018-01-05T00:36:49.748Z,0.00
2018-01-05T00:37:49.752Z,0.00
2018-01-05T00:39:42.872Z,0.00
2018-01-05T00:40:42.866Z,0.00
2018-01-05T00:42:35.945Z,0.00
2018-01-05T00:43:35.841Z,0.00
2018-01-05T00:45:29.406Z,0.00
2018-01-05T00:46:29.403Z,0.00
2018-01-05T00:48:22.314Z,0.00
2018-01-05T00:49:22.333Z,0.00
2018-01-05T00:51:15.364Z,0.00
2018-01-05T00:52:15.351Z,0.00
2018-01-05T00:54:08.279Z,0.00
2018-01-05T00:55:08.279Z,0.00
2018-01-05T00:57:01.202Z,0.00
2018-01-05T00:58:01.194Z,0.00
2018-01-05T00:59:54.149Z,0.00
2018-01-05T01:00:54.161Z,0.00
2018-01-05T01:02:47.553Z,0.00
2018-01-05T01:03:47.556Z,0.00
2018-01-05T01:05:40.448Z,0.00
2018-01-05T01:06:40.464Z,0.00
2018-01-05T01:08:33.410Z,0.00
2018-01-05T01:09:33.395Z,0.00
2018-01-05T01:11:26.301Z,0.00
2018-01-05T01:12:26.310Z,0.00
2018-01-05T01:14:19.618Z,0.00
2018-01-05T01:15:19.247Z,0.00
2018-01-05T01:17:12.501Z,0.00
2018-01-05T01:18:12.490Z,0.00
2018-01-05T01:20:05.439Z,0.00
2018-01-05T01:21:05.440Z,0.00
2018-01-05T01:22:58.355Z,0.00
2018-01-05T01:23:58.365Z,0.00
2018-01-05T01:25:52.522Z,0.00
2018-01-05T01:26:52.096Z,0.00
2018-01-05T01:28:46.047Z,0.00
2018-01-05T01:29:46.058Z,0.00
2018-01-05T01:31:38.975Z,0.00
2018-01-05T01:32:38.975Z,0.00
2018-01-05T01:34:31.903Z,0.00
2018-01-05T01:35:31.899Z,0.00
2018-01-05T01:37:24.801Z,0.00
2018-01-05T01:38:24.841Z,0.00
2018-01-05T01:40:18.012Z,0.00
2018-01-05T01:41:17.745Z,0.00
2018-01-05T01:43:10.781Z,0.00
2018-01-05T01:44:10.783Z,0.00
2018-01-05T01:46:03.677Z,0.00
2018-01-05T01:47:03.697Z,0.00
2018-01-05T01:48:56.609Z,0.00
2018-01-05T01:49:56.612Z,0.00
2018-01-05T01:51:49.519Z,0.00
2018-01-05T01:52:49.533Z,0.00
2018-01-05T01:54:42.444Z,0.00
2018-01-05T01:55:42.445Z,0.00
2018-01-05T01:57:35.355Z,0.00
2018-01-05T01:58:35.369Z,0.00
2018-01-05T02:00:28.523Z,0.00
2018-01-05T02:01:28.532Z,0.00
2018-01-05T02:03:21.412Z,0.00
2018-01-05T02:04:21.435Z,0.00
2018-01-05T02:06:14.341Z,0.00
2018-01-05T02:07:14.351Z,0.00
2018-01-05T02:09:07.254Z,0.00
2018-01-05T02:10:07.276Z,0.00
2018-01-05T02:12:00.205Z,0.00
2018-01-05T02:13:00.186Z,0.00
2018-01-05T02:14:53.108Z,0.00
2018-01-05T02:15:53.108Z,0.00
2018-01-05T02:17:46.045Z,0.00
2018-01-05T02:18:46.035Z,0.00
2018-01-05T02:20:38.939Z,0.00
2018-01-05T02:21:38.952Z,0.00
2018-01-05T02:23:31.870Z,0.00
2018-01-05T02:24:31.865Z,0.00
2018-01-05T02:26:24.773Z,0.00
2018-01-05T02:27:24.797Z,0.00
2018-01-05T02:29:17.710Z,0.00
2018-01-05T02:30:17.698Z,0.00
2018-01-05T02:32:10.606Z,0.00
2018-01-05T02:33:10.676Z,0.00
2018-01-05T02:35:03.688Z,0.00
2018-01-05T02:36:03.655Z,0.00
2018-01-05T02:37:56.569Z,0.00
2018-01-05T02:38:56.579Z,0.00
2018-01-05T02:40:50.039Z,0.00
2018-01-05T02:41:50.035Z,0.00
2018-01-05T02:43:42.945Z,0.00
2018-01-05T02:44:42.966Z,0.00
2018-01-05T02:46:36.100Z,0.00
2018-01-05T02:47:36.111Z,0.00
2018-01-05T02:49:29.033Z,0.00
2018-01-05T02:50:29.036Z,0.00
2018-01-05T02:52:21.952Z,0.00
2018-01-05T02:53:21.961Z,0.00
2018-01-05T02:55:15.095Z,0.00
2018-01-05T02:56:15.100Z,0.00
2018-01-05T02:58:08.014Z,0.00
2018-01-05T02:59:08.032Z,0.00
2018-01-05T03:01:00.947Z,0.00
2018-01-05T03:02:00.953Z,0.00
2018-01-05T03:03:53.855Z,0.00
2018-01-05T03:04:53.877Z,0.00
2018-01-05T03:06:46.805Z,0.00
2018-01-05T03:07:46.795Z,0.00
2018-01-05T03:09:39.708Z,0.00
2018-01-05T03:10:39.728Z,0.00
2018-01-05T03:12:32.640Z,0.00
2018-01-05T03:13:32.638Z,0.00
2018-01-05T03:15:25.905Z,0.00
2018-01-05T03:16:25.915Z,0.00
2018-01-05T03:18:18.847Z,0.00
2018-01-05T03:19:18.849Z,0.00
2018-01-05T03:21:11.765Z,0.00
2018-01-05T03:22:11.769Z,0.00
2018-01-05T03:24:04.682Z,0.00
2018-01-05T03:25:04.685Z,0.00
2018-01-05T03:26:57.603Z,0.00
2018-01-05T03:27:57.603Z,0.00
2018-01-05T03:29:50.516Z,0.00
2018-01-05T03:30:50.534Z,0.00
2018-01-05T03:32:43.448Z,0.00
2018-01-05T03:33:43.443Z,0.00
2018-01-05T03:35:36.356Z,0.00
2018-01-05T03:36:36.361Z,0.00
2018-01-05T03:38:29.278Z,0.00
2018-01-05T03:39:29.281Z,0.00
2018-01-05T03:41:22.183Z,0.00
2018-01-05T03:42:22.191Z,0.00
2018-01-05T03:44:15.249Z,0.00
2018-01-05T03:45:15.255Z,0.00
2018-01-05T03:47:08.198Z,0.00
2018-01-05T03:48:08.227Z,0.00
2018-01-05T03:50:01.099Z,0.00
2018-01-05T03:51:01.105Z,0.00
2018-01-05T03:52:54.027Z,0.00
2018-01-05T03:53:54.019Z,0.00
2018-01-05T03:55:46.959Z,0.00
2018-01-05T03:56:46.970Z,0.00
2018-01-05T03:58:39.892Z,0.00
2018-01-05T03:59:39.893Z,0.00
2018-01-05T04:01:32.791Z,0.00
2018-01-05T04:02:32.808Z,0.00
2018-01-05T04:04:25.737Z,0.00
2018-01-05T04:05:25.727Z,0.00
2018-01-05T04:07:18.631Z,0.00
2018-01-05T04:08:18.648Z,0.00
2018-01-05T04:10:11.584Z,0.00
2018-01-05T04:11:11.591Z,0.00
2018-01-05T04:13:04.471Z,0.00
2018-01-05T04:14:04.490Z,0.00
2018-01-05T04:15:57.581Z,0.00
2018-01-05T04:16:57.581Z,0.00
2018-01-05T04:18:50.491Z,0.00
2018-01-05T04:19:50.513Z,0.00
2018-01-05T04:21:43.434Z,0.00
2018-01-05T04:22:43.423Z,0.00
2018-01-05T04:24:36.324Z,0.00
2018-01-05T04:25:36.340Z,0.00
2018-01-05T04:27:29.246Z,0.00
2018-01-05T04:28:29.252Z,0.00
2018-01-05T04:30:22.157Z,0.00
2018-01-05T04:31:22.202Z,0.00
2018-01-05T04:33:15.079Z,0.00
2018-01-05T04:34:15.086Z,0.00
2018-01-05T04:36:07.989Z,0.00
2018-01-05T04:37:08.003Z,0.00
2018-01-05T04:39:00.923Z,0.00
2018-01-05T04:40:00.920Z,0.00
2018-01-05T04:41:53.823Z,0.00
2018-01-05T04:42:53.835Z,0.00
2018-01-05T04:44:46.764Z,0.00
2018-01-05T04:45:46.751Z,0.00
2018-01-05T04:47:39.648Z,0.00
2018-01-05T04:48:39.666Z,0.00
2018-01-05T04:50:32.608Z,0.00
2018-01-05T04:51:32.588Z,0.00
2018-01-05T04:53:25.485Z,0.00
2018-01-05T04:54:25.500Z,0.00
2018-01-05T04:56:18.412Z,0.00
2018-01-05T04:57:18.413Z,0.00
2018-01-05T04:59:11.319Z,0.00
2018-01-05T05:00:11.334Z,0.00
2018-01-05T05:02:04.249Z,0.00
2018-01-05T05:03:04.246Z,0.00
2018-01-05T05:04:57.153Z,0.00
2018-01-05T05:05:57.164Z,0.00
2018-01-05T05:07:50.079Z,0.00
2018-01-05T05:08:50.086Z,0.00
2018-01-05T05:10:42.992Z,0.00
2018-01-05T05:11:43.013Z,0.00
2018-01-05T05:13:36.121Z,0.00
2018-01-05T05:14:36.114Z,0.00
2018-01-05T05:16:29.272Z,0.00
2018-01-05T05:17:29.281Z,0.00
2018-01-05T05:19:22.214Z,0.00
2018-01-05T05:20:22.206Z,0.00
2018-01-05T05:22:15.109Z,0.00
2018-01-05T05:23:15.124Z,0.00
2018-01-05T05:25:08.057Z,0.00
2018-01-05T05:26:08.057Z,0.00
2018-01-05T05:28:00.956Z,0.00
2018-01-05T05:29:00.970Z,0.00
2018-01-05T05:30:53.890Z,0.00
2018-01-05T05:31:53.889Z,0.00
2018-01-05T05:33:46.802Z,0.00
2018-01-05T05:34:46.819Z,0.00
2018-01-05T05:36:39.726Z,0.00
2018-01-05T05:37:39.733Z,0.00
2018-01-05T05:39:32.667Z,0.00
2018-01-05T05:40:32.648Z,0.00
2018-01-05T05:42:25.553Z,0.00
2018-01-05T05:43:25.572Z,0.00
2018-01-05T05:45:18.503Z,0.00
2018-01-05T05:46:18.488Z,0.00
2018-01-05T05:48:11.390Z,0.00
2018-01-05T05:49:11.404Z,0.00
2018-01-05T05:51:04.330Z,0.00
2018-01-05T05:52:04.321Z,0.00
2018-01-05T05:53:57.233Z,0.00
2018-01-05T05:54:57.242Z,0.00
2018-01-05T05:56:50.150Z,0.00
2018-01-05T05:57:50.153Z,0.00
2018-01-05T05:59:43.121Z,0.00
2018-01-05T06:00:43.113Z,0.00
2018-01-05T06:02:36.022Z,0.00
2018-01-05T06:03:36.044Z,0.00
2018-01-05T06:05:28.961Z,0.00
2018-01-05T06:06:28.960Z,0.00
2018-01-05T06:08:21.865Z,0.00
2018-01-05T06:09:21.883Z,0.00
2018-01-05T06:11:14.790Z,0.00
2018-01-05T06:12:14.792Z,0.00
2018-01-05T06:14:07.692Z,0.00
2018-01-05T06:15:07.710Z,0.00
2018-01-05T06:17:00.647Z,0.00
2018-01-05T06:18:00.627Z,0.00
2018-01-05T06:19:53.527Z,0.00
2018-01-05T06:20:53.542Z,0.00
2018-01-05T06:22:46.477Z,0.00
2018-01-05T06:23:46.458Z,0.00
2018-01-05T06:25:39.365Z,0.00
2018-01-05T06:26:39.372Z,0.00
2018-01-05T06:28:32.440Z,0.00
2018-01-05T06:29:32.446Z,0.00
2018-01-05T06:31:25.399Z,0.00
2018-01-05T06:32:25.414Z,0.00
2018-01-05T06:34:18.332Z,0.00
2018-01-05T06:35:18.333Z,0.00
2018-01-05T06:37:11.295Z,0.00
2018-01-05T06:38:11.305Z,0.00
2018-01-05T06:40:04.250Z,0.00
2018-01-05T06:41:04.246Z,0.00
2018-01-05T06:42:57.177Z,0.00
2018-01-05T06:43:57.169Z,0.00
2018-01-05T06:45:50.071Z,0.00
2018-01-05T06:46:50.083Z,0.00
2018-01-05T06:48:43.049Z,0.00
2018-01-05T06:49:43.042Z,0.00
2018-01-05T06:51:35.941Z,0.00
2018-01-05T06:52:35.950Z,0.00
2018-01-05T06:54:28.868Z,0.00
2018-01-05T06:55:28.872Z,0.00
2018-01-05T06:57:21.831Z,0.00
2018-01-05T06:58:21.839Z,0.00
2018-01-05T07:00:14.783Z,0.00
2018-01-05T07:01:14.772Z,0.00
2018-01-05T07:03:07.694Z,0.00
2018-01-05T07:04:07.711Z,0.00
2018-01-05T07:06:00.617Z,0.00
2018-01-05T07:07:00.630Z,4.00
2018-01-05T07:08:53.543Z,4.00
2018-01-05T07:09:53.544Z,4.00
2018-01-05T07:11:46.469Z,4.00
2018-01-05T07:12:46.460Z,4.00
2018-01-05T07:14:39.362Z,4.00
2018-01-05T07:15:39.378Z,4.00
2018-01-05T07:17:32.298Z,4.00
2018-01-05T07:18:32.296Z,4.00
2018-01-05T07:20:25.239Z,8.00
2018-01-05T07:21:25.260Z,8.00
2018-01-05T07:23:18.208Z,8.00
2018-01-05T07:24:18.192Z,12.00
2018-01-05T07:26:11.091Z,12.00
2018-01-05T07:27:11.107Z,12.00
2018-01-05T07:29:04.039Z,20.00
2018-01-05T07:30:04.026Z,24.00
2018-01-05T07:31:56.929Z,32.00
2018-01-05T07:32:56.942Z,36.00
2018-01-05T07:34:49.874Z,32.00
2018-01-05T07:35:49.877Z,40.00
2018-01-05T07:37:42.784Z,44.00
2018-01-05T07:38:42.790Z,40.00
2018-01-05T07:40:35.702Z,52.00
2018-01-05T07:41:35.702Z,64.00
2018-01-05T07:43:28.607Z,76.00
2018-01-05T07:44:28.620Z,84.00
2018-01-05T07:46:21.556Z,96.00
2018-01-05T07:47:21.541Z,100.00
2018-01-05T07:49:14.442Z,104.00
2018-01-05T07:50:14.467Z,120.00
2018-01-05T07:52:07.386Z,128.00
2018-01-05T07:53:07.379Z,120.00
2018-01-05T07:55:00.395Z,140.00
2018-01-05T07:56:00.408Z,144.00
2018-01-05T07:57:53.344Z,164.00
2018-01-05T07:58:53.350Z,156.00
2018-01-05T08:00:46.250Z,196.00
2018-01-05T08:01:46.269Z,196.00
2018-01-05T08:03:39.196Z,220.00
2018-01-05T08:04:39.188Z,228.00
2018-01-05T08:06:32.083Z,232.00
2018-01-05T08:07:32.104Z,200.00
2018-01-05T08:09:25.104Z,240.00
2018-01-05T08:10:25.103Z,280.00
2018-01-05T08:12:18.042Z,240.00
2018-01-05T08:13:18.027Z,212.00
2018-01-05T08:15:10.935Z,200.00
2018-01-05T08:16:10.948Z,192.00
2018-01-05T08:18:04.478Z,204.00
2018-01-05T08:19:04.479Z,208.00
2018-01-05T08:20:57.389Z,212.00
2018-01-05T08:21:57.406Z,224.00
2018-01-05T08:23:50.335Z,220.00
2018-01-05T08:24:50.338Z,240.00
2018-01-05T08:26:43.294Z,220.00
2018-01-05T08:27:43.278Z,224.00
2018-01-05T08:29:36.237Z,164.00
2018-01-05T08:30:36.243Z,160.00
2018-01-05T08:32:29.190Z,156.00
2018-01-05T08:33:29.184Z,160.00
2018-01-05T08:35:22.718Z,156.00
2018-01-05T08:36:22.729Z,156.00
2018-01-05T08:38:15.681Z,188.00
2018-01-05T08:39:15.670Z,200.00
2018-01-05T08:41:09.111Z,192.00
2018-01-05T08:42:09.127Z,192.00
2018-01-05T08:44:02.052Z,180.00
2018-01-05T08:45:02.054Z,188.00
2018-01-05T08:46:54.967Z,184.00
2018-01-05T08:47:54.981Z,184.00
2018-01-05T08:49:47.910Z,172.00
2018-01-05T08:50:47.908Z,168.00
2018-01-05T08:52:40.835Z,148.00
2018-01-05T08:53:40.849Z,152.00
2018-01-05T08:55:34.318Z,244.00
2018-01-05T08:56:34.305Z,264.00
2018-01-05T08:58:27.280Z,292.00
2018-01-05T08:59:27.290Z,312.00
2018-01-05T09:01:20.209Z,296.00
2018-01-05T09:02:20.214Z,220.00
2018-01-05T09:04:13.122Z,192.00
2018-01-05T09:05:13.127Z,204.00
2018-01-05T09:07:06.051Z,248.00
2018-01-05T09:08:06.056Z,228.00
2018-01-05T09:09:59.103Z,268.00
2018-01-05T09:10:59.070Z,352.00
2018-01-05T09:12:51.991Z,276.00
2018-01-05T09:13:51.985Z,252.00
2018-01-05T09:15:44.946Z,228.00
2018-01-05T09:16:44.984Z,260.00
2018-01-05T09:18:37.918Z,248.00
2018-01-05T09:19:37.913Z,248.00
2018-01-05T09:21:30.827Z,176.00
2018-01-05T09:22:30.842Z,212.00
2018-01-05T09:24:24.219Z,208.00
2018-01-05T09:25:23.823Z,260.00
2018-01-05T09:27:16.937Z,300.00
2018-01-05T09:28:16.908Z,256.00
2018-01-05T09:30:09.830Z,160.00
2018-01-05T09:31:09.829Z,164.00
2018-01-05T09:33:02.726Z,156.00
2018-01-05T09:34:02.743Z,212.00
2018-01-05T09:35:55.658Z,316.00
2018-01-05T09:36:55.657Z,272.00
2018-01-05T09:38:48.548Z,284.00
2018-01-05T09:39:48.572Z,436.00
2018-01-05T09:41:41.490Z,472.00
2018-01-05T09:42:41.476Z,292.00
2018-01-05T09:44:34.566Z,240.00
2018-01-05T09:45:34.580Z,260.00
2018-01-05T09:47:27.526Z,284.00
2018-01-05T09:48:27.515Z,336.00
2018-01-05T09:50:20.445Z,236.00
2018-01-05T09:51:20.458Z,212.00
2018-01-05T09:53:13.405Z,248.00
2018-01-05T09:54:13.403Z,220.00
2018-01-05T09:56:06.302Z,132.00
2018-01-05T09:57:06.318Z,192.00
2018-01-05T09:59:08.299Z,124.00
2018-01-05T09:59:59.450Z,152.00
2018-01-05T10:01:52.430Z,280.00
2018-01-05T10:02:52.381Z,252.00
2018-01-05T10:04:45.286Z,348.00
2018-01-05T10:05:45.300Z,428.00
2018-01-05T10:07:38.221Z,496.00
2018-01-05T10:08:38.219Z,348.00
2018-01-05T10:10:31.135Z,268.00
2018-01-05T10:11:31.145Z,276.00
2018-01-05T10:13:24.083Z,232.00
2018-01-05T10:14:24.067Z,324.00
2018-01-05T10:16:16.982Z,368.00
2018-01-05T10:17:17.004Z,364.00
2018-01-05T10:19:09.954Z,336.00
2018-01-05T10:20:09.940Z,400.00
2018-01-05T10:22:02.839Z,400.00
2018-01-05T10:23:02.870Z,332.00
2018-01-05T10:24:55.789Z,284.00
2018-01-05T10:25:55.797Z,296.00
2018-01-05T10:27:48.699Z,320.00
2018-01-05T10:28:48.712Z,260.00
2018-01-05T10:30:41.674Z,364.00
2018-01-05T10:31:41.677Z,460.00
2018-01-05T10:33:34.596Z,544.00
2018-01-05T10:34:34.591Z,780.00
2018-01-05T10:36:27.515Z,888.00
2018-01-05T10:37:27.509Z,648.00
2018-01-05T10:39:21.436Z,612.00
2018-01-05T10:40:21.454Z,548.00
2018-01-05T10:42:14.366Z,792.00
2018-01-05T10:43:14.363Z,656.00
2018-01-05T10:45:07.317Z,968.00
2018-01-05T10:46:07.322Z,996.00
2018-01-05T10:48:00.288Z,876.00
2018-01-05T10:49:00.294Z,760.00
2018-01-05T10:50:53.210Z,636.00
2018-01-05T10:51:53.216Z,664.00
2018-01-05T10:53:46.149Z,736.00
2018-01-05T10:54:46.149Z,612.00
2018-01-05T10:56:39.061Z,440.00
2018-01-05T10:57:39.077Z,424.00
2018-01-05T10:59:32.005Z,332.00
2018-01-05T11:00:31.989Z,336.00
2018-01-05T11:02:24.906Z,376.00
2018-01-05T11:03:24.930Z,388.00
2018-01-05T11:05:17.831Z,376.00
2018-01-05T11:06:17.842Z,516.00
2018-01-05T11:08:10.745Z,576.00
2018-01-05T11:09:10.755Z,588.00
2018-01-05T11:11:03.686Z,420.00
2018-01-05T11:12:03.676Z,476.00
2018-01-05T11:13:56.828Z,452.00
2018-01-05T11:14:56.848Z,384.00
2018-01-05T11:16:49.832Z,464.00
2018-01-05T11:17:49.829Z,544.00
2018-01-05T11:19:42.919Z,408.00
2018-01-05T11:20:42.934Z,436.00
2018-01-05T11:22:35.852Z,528.00
2018-01-05T11:23:35.861Z,636.00
2018-01-05T11:25:28.777Z,568.00
2018-01-05T11:26:28.781Z,620.00
2018-01-05T11:28:21.685Z,496.00
2018-01-05T11:29:21.700Z,620.00
2018-01-05T11:31:14.813Z,648.00
2018-01-05T11:32:14.812Z,708.00
2018-01-05T11:34:07.754Z,668.00
2018-01-05T11:35:07.764Z,536.00
2018-01-05T11:37:00.730Z,692.00
2018-01-05T11:38:00.733Z,900.00
2018-01-05T11:39:53.661Z,748.00
2018-01-05T11:40:53.674Z,480.00
2018-01-05T11:42:46.566Z,404.00
2018-01-05T11:43:46.579Z,432.00
2018-01-05T11:45:39.488Z,484.00
2018-01-05T11:46:39.495Z,476.00
2018-01-05T11:48:32.592Z,456.00
2018-01-05T11:49:32.613Z,496.00
2018-01-05T11:51:25.533Z,460.00
2018-01-05T11:52:25.531Z,496.00
2018-01-05T11:54:18.639Z,372.00
2018-01-05T11:55:18.664Z,308.00
2018-01-05T11:57:11.558Z,320.00
2018-01-05T11:58:11.572Z,344.00
2018-01-05T12:00:04.693Z,280.00
2018-01-05T12:01:04.678Z,264.00
2018-01-05T12:02:57.592Z,292.00
2018-01-05T12:03:57.621Z,288.00
2018-01-05T12:05:50.721Z,284.00
2018-01-05T12:06:50.715Z,316.00
2018-01-05T12:08:43.626Z,316.00
2018-01-05T12:09:43.647Z,304.00
2018-01-05T12:11:36.551Z,272.00
2018-01-05T12:12:36.557Z,268.00
2018-01-05T12:14:29.624Z,336.00
2018-01-05T12:15:29.638Z,360.00
2018-01-05T12:17:22.534Z,396.00
2018-01-05T12:18:22.555Z,424.00
2018-01-05T12:20:15.495Z,384.00
2018-01-05T12:21:15.491Z,432.00
2018-01-05T12:23:08.382Z,432.00
2018-01-05T12:24:08.407Z,472.00
2018-01-05T12:26:01.324Z,572.00
2018-01-05T12:27:01.323Z,620.00
2018-01-05T12:28:54.546Z,580.00
2018-01-05T12:29:54.565Z,496.00
2018-01-05T12:31:47.509Z,376.00
2018-01-05T12:32:47.491Z,348.00
2018-01-05T12:34:40.584Z,356.00
2018-01-05T12:35:40.595Z,376.00
2018-01-05T12:37:33.524Z,448.00
2018-01-05T12:38:33.529Z,500.00
2018-01-05T12:40:26.432Z,480.00
2018-01-05T12:41:26.447Z,400.00
2018-01-05T12:43:19.371Z,324.00
2018-01-05T12:44:19.363Z,308.00
2018-01-05T12:46:12.283Z,312.00
2018-01-05T12:47:12.290Z,280.00
2018-01-05T12:49:06.283Z,268.00
2018-01-05T12:50:06.314Z,248.00
2018-01-05T12:51:59.210Z,304.00
2018-01-05T12:52:59.222Z,276.00
2018-01-05T12:54:52.158Z,260.00
2018-01-05T12:55:52.149Z,236.00
2018-01-05T12:57:45.052Z,256.00
2018-01-05T12:58:45.064Z,248.00
2018-01-05T13:00:37.989Z,252.00
2018-01-05T13:01:37.980Z,212.00
2018-01-05T13:03:30.881Z,192.00
2018-01-05T13:04:30.896Z,192.00
2018-01-05T13:06:23.834Z,236.00
2018-01-05T13:07:23.813Z,212.00
2018-01-05T13:09:16.714Z,236.00
2018-01-05T13:10:16.730Z,228.00
2018-01-05T13:12:09.655Z,212.00
2018-01-05T13:13:09.643Z,236.00
2018-01-05T13:15:02.546Z,228.00
2018-01-05T13:16:02.565Z,236.00
2018-01-05T13:17:55.678Z,264.00
2018-01-05T13:18:55.676Z,260.00
2018-01-05T13:20:48.587Z,228.00
2018-01-05T13:21:48.605Z,248.00
2018-01-05T13:23:41.530Z,236.00
2018-01-05T13:24:41.514Z,212.00
2018-01-05T13:26:34.481Z,184.00
2018-01-05T13:27:34.436Z,188.00
2018-01-05T13:29:27.363Z,224.00
2018-01-05T13:30:27.345Z,212.00
2018-01-05T13:32:20.251Z,196.00
2018-01-05T13:33:20.255Z,196.00
2018-01-05T13:35:13.210Z,176.00
2018-01-05T13:36:13.186Z,204.00
2018-01-05T13:38:06.280Z,180.00
2018-01-05T13:39:06.314Z,172.00
2018-01-05T13:40:59.238Z,164.00
2018-01-05T13:41:59.247Z,196.00
2018-01-05T13:43:52.321Z,196.00
2018-01-05T13:44:52.327Z,192.00
2018-01-05T13:46:45.276Z,212.00
2018-01-05T13:47:45.261Z,212.00
2018-01-05T13:49:38.199Z,192.00
2018-01-05T13:50:38.213Z,248.00
2018-01-05T13:52:31.173Z,320.00
2018-01-05T13:53:31.136Z,272.00
2018-01-05T13:55:24.045Z,216.00
2018-01-05T13:56:24.048Z,252.00
2018-01-05T13:58:16.975Z,328.00
2018-01-05T13:59:16.981Z,328.00
2018-01-05T14:01:10.044Z,296.00
2018-01-05T14:02:10.123Z,268.00
2018-01-05T14:04:02.958Z,320.00
2018-01-05T14:05:02.955Z,340.00
2018-01-05T14:06:55.870Z,300.00
2018-01-05T14:07:55.870Z,264.00
2018-01-05T14:09:48.778Z,244.00
2018-01-05T14:10:48.782Z,252.00
2018-01-05T14:12:41.703Z,228.00
2018-01-05T14:13:41.707Z,196.00
2018-01-05T14:15:34.771Z,200.00
2018-01-05T14:16:34.815Z,180.00
2018-01-05T14:18:27.699Z,184.00
2018-01-05T14:19:27.712Z,188.00
2018-01-05T14:21:20.668Z,188.00
2018-01-05T14:22:20.711Z,200.00
2018-01-05T14:24:13.563Z,236.00
2018-01-05T14:25:13.580Z,212.00
2018-01-05T14:27:06.652Z,184.00
2018-01-05T14:28:06.653Z,180.00
2018-01-05T14:29:59.572Z,168.00
2018-01-05T14:30:59.570Z,164.00
2018-01-05T14:32:52.469Z,164.00
2018-01-05T14:33:52.482Z,180.00
2018-01-05T14:35:45.413Z,168.00
2018-01-05T14:36:45.411Z,156.00
2018-01-05T14:38:38.314Z,164.00
2018-01-05T14:39:38.327Z,180.00
2018-01-05T14:41:31.229Z,164.00
2018-01-05T14:42:31.240Z,148.00
2018-01-05T14:44:24.166Z,96.00
2018-01-05T14:45:24.168Z,88.00
2018-01-05T14:47:17.065Z,92.00
2018-01-05T14:48:17.118Z,80.00
2018-01-05T14:50:10.008Z,76.00
2018-01-05T14:51:10.012Z,88.00
2018-01-05T14:53:02.907Z,88.00
2018-01-05T14:54:02.920Z,72.00
2018-01-05T14:55:55.839Z,84.00
2018-01-05T14:56:55.845Z,80.00
2018-01-05T14:58:48.789Z,84.00
2018-01-05T14:59:48.766Z,68.00
2018-01-05T15:01:41.822Z,80.00
2018-01-05T15:02:41.876Z,100.00
2018-01-05T15:04:34.915Z,144.00
2018-01-05T15:05:34.797Z,156.00
2018-01-05T15:07:27.695Z,136.00
2018-01-05T15:08:27.692Z,128.00
2018-01-05T15:10:20.713Z,112.00
2018-01-05T15:11:20.717Z,104.00
2018-01-05T15:13:13.665Z,96.00
2018-01-05T15:14:13.657Z,92.00
2018-01-05T15:16:06.564Z,84.00
2018-01-05T15:17:06.571Z,76.00
2018-01-05T15:18:59.517Z,68.00
2018-01-05T15:19:59.507Z,64.00
2018-01-05T15:21:52.405Z,56.00
2018-01-05T15:22:52.466Z,48.00
2018-01-05T15:24:45.627Z,44.00
2018-01-05T15:25:45.619Z,36.00
2018-01-05T15:27:38.538Z,32.00
2018-01-05T15:28:38.666Z,32.00
2018-01-05T15:30:31.664Z,24.00
2018-01-05T15:31:31.676Z,24.00
2018-01-05T15:33:25.908Z,20.00
2018-01-05T15:34:25.927Z,16.00
2018-01-05T15:36:18.861Z,16.00
2018-01-05T15:37:18.868Z,12.00
2018-01-05T15:39:11.961Z,8.00
2018-01-05T15:40:11.961Z,8.00
2018-01-05T15:42:04.915Z,4.00
2018-01-05T15:43:04.900Z,8.00
2018-01-05T15:44:57.818Z,4.00
2018-01-05T15:45:57.827Z,4.00
2018-01-05T15:47:50.755Z,4.00
2018-01-05T15:48:50.750Z,0.00
2018-01-05T15:50:43.657Z,0.00
2018-01-05T15:51:43.669Z,4.00
2018-01-05T15:53:36.592Z,0.00
2018-01-05T15:54:36.594Z,0.00
2018-01-05T15:56:30.405Z,0.00
2018-01-05T15:57:30.411Z,0.00
2018-01-05T15:59:23.337Z,0.00
2018-01-05T16:00:23.332Z,0.00
2018-01-05T16:02:16.291Z,0.00
2018-01-05T16:03:16.275Z,0.00
2018-01-05T16:05:09.177Z,0.00
2018-01-05T16:06:09.183Z,0.00
2018-01-05T16:08:02.141Z,0.00
2018-01-05T16:09:02.132Z,0.00
2018-01-05T16:10:55.078Z,0.00
2018-01-05T16:11:55.086Z,0.00
2018-01-05T16:13:48.006Z,0.00
2018-01-05T16:14:47.999Z,0.00
2018-01-05T16:16:40.907Z,0.00
2018-01-05T16:17:40.916Z,0.00
2018-01-05T16:19:33.848Z,0.00
2018-01-05T16:20:33.839Z,0.00
2018-01-05T16:22:27.253Z,0.00
2018-01-05T16:23:27.266Z,0.00
2018-01-05T16:25:20.236Z,0.00
2018-01-05T16:26:20.230Z,0.00
2018-01-05T16:28:13.186Z,0.00
2018-01-05T16:29:13.169Z,0.00
2018-01-05T16:31:06.142Z,0.00
2018-01-05T16:32:06.096Z,0.00
2018-01-05T16:33:58.996Z,0.00
2018-01-05T16:34:59.014Z,0.00
2018-01-05T16:36:51.954Z,0.00
2018-01-05T16:37:51.924Z,0.00
2018-01-05T16:39:44.952Z,0.00
2018-01-05T16:40:44.849Z,0.00
2018-01-05T16:42:37.790Z,0.00
2018-01-05T16:43:37.762Z,0.00
2018-01-05T16:45:30.688Z,0.00
2018-01-05T16:46:30.682Z,0.00
2018-01-05T16:48:23.599Z,0.00
2018-01-05T16:49:23.603Z,0.00
2018-01-05T16:51:16.550Z,0.00
2018-01-05T16:52:16.526Z,0.00
2018-01-05T16:54:09.628Z,0.00
2018-01-05T16:55:09.615Z,0.00
2018-01-05T16:57:02.572Z,0.00
2018-01-05T16:58:02.569Z,0.00
2018-01-05T17:01:28.304Z,0.00
2018-01-05T17:02:28.374Z,0.00
2018-01-05T17:04:21.256Z,0.00
2018-01-05T17:05:21.271Z,0.00
2018-01-05T17:07:15.155Z,0.00
2018-01-05T17:08:15.186Z,0.00
2018-01-05T17:10:08.349Z,0.00
2018-01-05T17:11:08.256Z,0.00
2018-01-05T17:13:01.179Z,0.00
2018-01-05T17:14:01.192Z,0.00
2018-01-05T17:15:54.108Z,0.00
2018-01-05T17:16:54.109Z,0.00
2018-01-05T17:18:48.026Z,0.00
2018-01-05T17:19:48.032Z,0.00
2018-01-05T17:21:41.622Z,0.00
2018-01-05T17:22:41.246Z,0.00
2018-01-05T17:24:34.316Z,0.00
2018-01-05T17:25:34.217Z,0.00
2018-01-05T17:27:27.207Z,0.00
2018-01-05T17:28:27.185Z,0.00
2018-01-05T17:30:20.093Z,0.00
2018-01-05T17:31:20.114Z,0.00
2018-01-05T17:33:13.052Z,0.00
2018-01-05T17:34:13.031Z,0.00
2018-01-05T17:36:05.940Z,0.00
2018-01-05T17:37:06.185Z,0.00
2018-01-05T17:38:58.869Z,0.00
2018-01-05T17:39:58.874Z,0.00
2018-01-05T17:41:51.862Z,0.00
2018-01-05T17:42:51.878Z,0.00
2018-01-05T17:44:45.738Z,0.00
2018-01-05T17:45:45.753Z,0.00
2018-01-05T17:47:38.678Z,0.00
2018-01-05T17:48:38.678Z,0.00
2018-01-05T17:50:31.580Z,0.00
2018-01-05T17:51:31.603Z,0.00
2018-01-05T17:53:24.505Z,0.00
2018-01-05T17:54:24.518Z,0.00
2018-01-05T17:56:17.444Z,0.00
2018-01-05T17:57:17.449Z,0.00
2018-01-05T17:59:10.364Z,0.00
2018-01-05T18:00:10.384Z,0.00
2018-01-05T18:02:03.816Z,0.00
2018-01-05T18:03:03.860Z,0.00
2018-01-05T18:04:56.806Z,0.00
2018-01-05T18:05:56.823Z,0.00
2018-01-05T18:07:49.831Z,0.00
2018-01-05T18:08:49.784Z,0.00
2018-01-05T18:10:42.696Z,0.00
2018-01-05T18:11:42.708Z,0.00
2018-01-05T18:13:35.694Z,0.00
2018-01-05T18:14:35.676Z,0.00
2018-01-05T18:16:28.617Z,0.00
2018-01-05T18:17:28.608Z,0.00
2018-01-05T18:19:22.422Z,0.00
2018-01-05T18:20:22.055Z,0.00
2018-01-05T18:22:15.097Z,0.00
2018-01-05T18:23:15.108Z,0.00
2018-01-05T18:25:08.020Z,0.00
2018-01-05T18:26:08.028Z,0.00
2018-01-05T18:28:00.946Z,0.00
2018-01-05T18:29:00.945Z,0.00
2018-01-05T18:30:53.982Z,0.00
2018-01-05T18:31:53.918Z,0.00
2018-01-05T18:33:46.829Z,0.00
2018-01-05T18:34:47.018Z,0.00
2018-01-05T18:36:39.734Z,0.00
2018-01-05T18:37:39.749Z,0.00
2018-01-05T18:39:32.691Z,0.00
2018-01-05T18:40:32.686Z,0.00
2018-01-05T18:42:25.588Z,0.00